sensor_id;sensor_type;location;lat;lon;timestamp;P1;durP1;ratioP1;P2;durP2;ratioP2
289;SDS011;13193;48.874;9.086;2022-08-21T00:00:44;9.40;;;2.30;;
289;SDS011;13193;48.874;9.086;2022-08-21T00:03:10;7.13;;;2.30;;
289;SDS011;13193;48.874;9.086;2022-08-21T00:05:39;9.07;;;3.70;;
289;SDS011;13193;48.874;9.086;2022-08-21T00:08:06;5.70;;;2.27;;
289;SDS011;13193;48.874;9.086;2022-08-21T00:10:32;6.80;;;2.40;;
289;SDS011;13193;48.874;9.086;2022-08-21T00:12:59;10.03;;;2.73;;
289;SDS011;13193;48.874;9.086;2022-08-21T00:15:27;4.43;;;2.50;;
289;SDS011;13193;48.874;9.086;2022-08-21T00:17:54;6.30;;;2.00;;
289;SDS011;13193;48.874;9.086;2022-08-21T00:20:21;4.90;;;2.00;;
289;SDS011;13193;48.874;9.086;2022-08-21T00:22:48;8.93;;;3.00;;
289;SDS011;13193;48.874;9.086;2022-08-21T00:25:14;13.87;;;2.90;;
289;SDS011;13193;48.874;9.086;2022-08-21T00:27:41;5.33;;;2.60;;
289;SDS011;13193;48.874;9.086;2022-08-21T00:30:08;4.87;;;2.43;;
289;SDS011;13193;48.874;9.086;2022-08-21T00:32:36;5.73;;;2.27;;
289;SDS011;13193;48.874;9.086;2022-08-21T00:35:04;6.63;;;2.80;;
289;SDS011;13193;48.874;9.086;2022-08-21T00:37:31;5.73;;;2.63;;
289;SDS011;13193;48.874;9.086;2022-08-21T00:39:57;5.03;;;2.60;;
289;SDS011;13193;48.874;9.086;2022-08-21T00:42:23;6.43;;;2.50;;
289;SDS011;13193;48.874;9.086;2022-08-21T00:44:49;7.03;;;2.30;;
289;SDS011;13193;48.874;9.086;2022-08-21T00:47:16;6.60;;;2.30;;
289;SDS011;13193;48.874;9.086;2022-08-21T00:49:42;6.13;;;2.30;;
289;SDS011;13193;48.874;9.086;2022-08-21T00:52:09;9.87;;;2.97;;
289;SDS011;13193;48.874;9.086;2022-08-21T00:54:39;5.20;;;2.80;;
289;SDS011;13193;48.874;9.086;2022-08-21T00:57:12;14.73;;;3.17;;
289;SDS011;13193;48.874;9.086;2022-08-21T00:59:41;4.80;;;2.57;;
289;SDS011;13193;48.874;9.086;2022-08-21T01:02:11;4.00;;;2.53;;
289;SDS011;13193;48.874;9.086;2022-08-21T01:04:37;3.57;;;2.03;;
289;SDS011;13193;48.874;9.086;2022-08-21T01:07:03;4.10;;;2.40;;
289;SDS011;13193;48.874;9.086;2022-08-21T01:09:29;6.73;;;2.70;;
289;SDS011;13193;48.874;9.086;2022-08-21T01:11:54;6.03;;;2.57;;
289;SDS011;13193;48.874;9.086;2022-08-21T01:14:20;12.53;;;2.67;;
289;SDS011;13193;48.874;9.086;2022-08-21T01:16:48;13.03;;;3.50;;
289;SDS011;13193;48.874;9.086;2022-08-21T01:19:17;4.77;;;2.70;;
289;SDS011;13193;48.874;9.086;2022-08-21T01:21:44;6.90;;;2.60;;
289;SDS011;13193;48.874;9.086;2022-08-21T01:24:11;6.57;;;3.60;;
289;SDS011;13193;48.874;9.086;2022-08-21T01:26:37;10.20;;;2.50;;
289;SDS011;13193;48.874;9.086;2022-08-21T01:31:41;5.87;;;2.63;;
289;SDS011;13193;48.874;9.086;2022-08-21T01:34:09;7.17;;;3.23;;
289;SDS011;13193;48.874;9.086;2022-08-21T01:36:35;13.07;;;2.60;;
289;SDS011;13193;48.874;9.086;2022-08-21T01:39:01;4.53;;;2.43;;
289;SDS011;13193;48.874;9.086;2022-08-21T01:41:28;16.97;;;3.20;;
289;SDS011;13193;48.874;9.086;2022-08-21T01:43:54;9.77;;;3.50;;
289;SDS011;13193;48.874;9.086;2022-08-21T01:46:19;5.40;;;3.00;;
289;SDS011;13193;48.874;9.086;2022-08-21T01:48:45;9.30;;;4.00;;
289;SDS011;13193;48.874;9.086;2022-08-21T01:51:11;7.07;;;3.10;;
289;SDS011;13193;48.874;9.086;2022-08-21T01:53:37;4.30;;;3.00;;
289;SDS011;13193;48.874;9.086;2022-08-21T01:56:05;3.90;;;2.33;;
289;SDS011;13193;48.874;9.086;2022-08-21T01:58:32;12.40;;;3.03;;
289;SDS011;13193;48.874;9.086;2022-08-21T02:00:58;8.07;;;3.03;;
289;SDS011;13193;48.874;9.086;2022-08-21T02:03:26;4.87;;;2.80;;
289;SDS011;13193;48.874;9.086;2022-08-21T02:05:53;10.33;;;3.20;;
289;SDS011;13193;48.874;9.086;2022-08-21T02:08:18;5.33;;;3.00;;
289;SDS011;13193;48.874;9.086;2022-08-21T02:10:47;16.63;;;4.10;;
289;SDS011;13193;48.874;9.086;2022-08-21T02:13:14;4.40;;;2.70;;
289;SDS011;13193;48.874;9.086;2022-08-21T02:15:40;7.93;;;3.40;;
289;SDS011;13193;48.874;9.086;2022-08-21T02:18:06;19.03;;;5.73;;
289;SDS011;13193;48.874;9.086;2022-08-21T02:20:39;11.93;;;4.47;;
289;SDS011;13193;48.874;9.086;2022-08-21T02:23:09;11.93;;;3.80;;
289;SDS011;13193;48.874;9.086;2022-08-21T02:25:36;7.53;;;4.20;;
289;SDS011;13193;48.874;9.086;2022-08-21T02:28:03;7.17;;;3.77;;
289;SDS011;13193;48.874;9.086;2022-08-21T02:30:33;6.37;;;3.17;;
289;SDS011;13193;48.874;9.086;2022-08-21T02:33:05;7.70;;;3.30;;
289;SDS011;13193;48.874;9.086;2022-08-21T02:35:32;14.70;;;3.90;;
289;SDS011;13193;48.874;9.086;2022-08-21T02:38:02;7.73;;;4.23;;
289;SDS011;13193;48.874;9.086;2022-08-21T02:40:31;9.67;;;4.57;;
289;SDS011;13193;48.874;9.086;2022-08-21T02:42:59;8.10;;;3.70;;
289;SDS011;13193;48.874;9.086;2022-08-21T02:45:26;10.13;;;3.37;;
289;SDS011;13193;48.874;9.086;2022-08-21T02:47:55;6.93;;;2.87;;
289;SDS011;13193;48.874;9.086;2022-08-21T02:50:26;6.23;;;3.30;;
289;SDS011;13193;48.874;9.086;2022-08-21T02:52:56;8.60;;;3.83;;
289;SDS011;13193;48.874;9.086;2022-08-21T02:55:23;7.40;;;3.67;;
289;SDS011;13193;48.874;9.086;2022-08-21T02:57:51;7.93;;;3.60;;
289;SDS011;13193;48.874;9.086;2022-08-21T03:00:18;3.63;;;2.23;;
289;SDS011;13193;48.874;9.086;2022-08-21T03:02:45;6.83;;;3.63;;
289;SDS011;13193;48.874;9.086;2022-08-21T03:05:13;10.90;;;4.30;;
289;SDS011;13193;48.874;9.086;2022-08-21T03:07:40;16.13;;;5.07;;
289;SDS011;13193;48.874;9.086;2022-08-21T03:10:06;6.83;;;2.80;;
289;SDS011;13193;48.874;9.086;2022-08-21T03:12:32;11.30;;;4.23;;
289;SDS011;13193;48.874;9.086;2022-08-21T03:15:00;10.40;;;4.23;;
289;SDS011;13193;48.874;9.086;2022-08-21T03:17:26;9.73;;;3.40;;
289;SDS011;13193;48.874;9.086;2022-08-21T03:19:52;13.00;;;4.27;;
289;SDS011;13193;48.874;9.086;2022-08-21T03:22:18;4.57;;;3.00;;
289;SDS011;13193;48.874;9.086;2022-08-21T03:24:43;6.33;;;3.00;;
289;SDS011;13193;48.874;9.086;2022-08-21T03:27:10;12.10;;;4.20;;
289;SDS011;13193;48.874;9.086;2022-08-21T03:29:37;9.70;;;3.77;;
289;SDS011;13193;48.874;9.086;2022-08-21T03:32:04;8.20;;;4.03;;
289;SDS011;13193;48.874;9.086;2022-08-21T03:34:29;9.60;;;3.53;;
289;SDS011;13193;48.874;9.086;2022-08-21T03:36:55;11.80;;;4.23;;
289;SDS011;13193;48.874;9.086;2022-08-21T03:39:21;7.47;;;4.07;;
289;SDS011;13193;48.874;9.086;2022-08-21T03:41:46;8.07;;;3.93;;
289;SDS011;13193;48.874;9.086;2022-08-21T03:44:12;7.63;;;3.57;;
289;SDS011;13193;48.874;9.086;2022-08-21T03:46:38;6.83;;;3.23;;
289;SDS011;13193;48.874;9.086;2022-08-21T03:49:05;8.57;;;3.80;;
289;SDS011;13193;48.874;9.086;2022-08-21T03:51:31;6.03;;;3.53;;
289;SDS011;13193;48.874;9.086;2022-08-21T03:53:58;7.57;;;4.07;;
289;SDS011;13193;48.874;9.086;2022-08-21T03:56:24;7.93;;;3.80;;
289;SDS011;13193;48.874;9.086;2022-08-21T03:58:50;5.50;;;3.70;;
289;SDS011;13193;48.874;9.086;2022-08-21T04:01:15;11.33;;;3.87;;
289;SDS011;13193;48.874;9.086;2022-08-21T04:03:41;15.40;;;4.47;;
289;SDS011;13193;48.874;9.086;2022-08-21T04:06:07;9.30;;;4.23;;
289;SDS011;13193;48.874;9.086;2022-08-21T04:08:33;13.43;;;4.30;;
289;SDS011;13193;48.874;9.086;2022-08-21T04:10:59;11.30;;;4.80;;
289;SDS011;13193;48.874;9.086;2022-08-21T04:13:25;6.80;;;4.43;;
289;SDS011;13193;48.874;9.086;2022-08-21T04:15:52;10.80;;;4.13;;
289;SDS011;13193;48.874;9.086;2022-08-21T04:18:19;7.00;;;4.07;;
289;SDS011;13193;48.874;9.086;2022-08-21T04:20:46;7.67;;;4.23;;
289;SDS011;13193;48.874;9.086;2022-08-21T04:23:13;9.33;;;4.57;;
289;SDS011;13193;48.874;9.086;2022-08-21T04:25:39;10.10;;;4.27;;
289;SDS011;13193;48.874;9.086;2022-08-21T04:28:05;9.93;;;4.23;;
289;SDS011;13193;48.874;9.086;2022-08-21T04:30:31;12.73;;;5.50;;
289;SDS011;13193;48.874;9.086;2022-08-21T04:32:57;8.83;;;4.67;;
289;SDS011;13193;48.874;9.086;2022-08-21T04:35:24;9.13;;;4.60;;
289;SDS011;13193;48.874;9.086;2022-08-21T04:37:51;8.70;;;5.40;;
289;SDS011;13193;48.874;9.086;2022-08-21T04:40:17;8.40;;;4.57;;
289;SDS011;13193;48.874;9.086;2022-08-21T04:42:46;5.67;;;4.00;;
289;SDS011;13193;48.874;9.086;2022-08-21T04:45:21;11.63;;;5.00;;
289;SDS011;13193;48.874;9.086;2022-08-21T04:47:52;9.47;;;4.23;;
289;SDS011;13193;48.874;9.086;2022-08-21T04:50:24;13.50;;;5.47;;
289;SDS011;13193;48.874;9.086;2022-08-21T04:53:00;9.93;;;4.50;;
289;SDS011;13193;48.874;9.086;2022-08-21T04:55:26;10.37;;;5.30;;
289;SDS011;13193;48.874;9.086;2022-08-21T04:57:53;12.50;;;4.53;;
289;SDS011;13193;48.874;9.086;2022-08-21T05:00:22;7.73;;;4.23;;
289;SDS011;13193;48.874;9.086;2022-08-21T05:02:50;13.83;;;4.70;;
289;SDS011;13193;48.874;9.086;2022-08-21T05:05:21;14.63;;;5.30;;
289;SDS011;13193;48.874;9.086;2022-08-21T05:07:47;9.40;;;4.10;;
289;SDS011;13193;48.874;9.086;2022-08-21T05:10:16;12.40;;;3.60;;
289;SDS011;13193;48.874;9.086;2022-08-21T05:12:41;11.23;;;4.03;;
289;SDS011;13193;48.874;9.086;2022-08-21T05:15:09;16.97;;;4.00;;
289;SDS011;13193;48.874;9.086;2022-08-21T05:17:37;8.20;;;4.17;;
289;SDS011;13193;48.874;9.086;2022-08-21T05:20:03;7.37;;;3.37;;
289;SDS011;13193;48.874;9.086;2022-08-21T05:22:29;5.63;;;3.07;;
289;SDS011;13193;48.874;9.086;2022-08-21T05:24:56;5.50;;;3.50;;
289;SDS011;13193;48.874;9.086;2022-08-21T05:29:57;12.50;;;3.33;;
289;SDS011;13193;48.874;9.086;2022-08-21T05:32:23;7.07;;;3.00;;
289;SDS011;13193;48.874;9.086;2022-08-21T05:34:49;5.83;;;3.70;;
289;SDS011;13193;48.874;9.086;2022-08-21T05:37:15;7.67;;;3.90;;
289;SDS011;13193;48.874;9.086;2022-08-21T05:39:41;8.10;;;2.87;;
289;SDS011;13193;48.874;9.086;2022-08-21T05:42:09;4.70;;;3.13;;
289;SDS011;13193;48.874;9.086;2022-08-21T05:44:35;9.37;;;3.67;;
289;SDS011;13193;48.874;9.086;2022-08-21T05:47:04;8.13;;;4.33;;
289;SDS011;13193;48.874;9.086;2022-08-21T05:49:31;13.50;;;3.90;;
289;SDS011;13193;48.874;9.086;2022-08-21T05:51:58;5.93;;;2.90;;
289;SDS011;13193;48.874;9.086;2022-08-21T05:54:24;10.10;;;5.07;;
289;SDS011;13193;48.874;9.086;2022-08-21T05:56:50;7.20;;;3.60;;
289;SDS011;13193;48.874;9.086;2022-08-21T05:59:16;9.40;;;3.83;;
289;SDS011;13193;48.874;9.086;2022-08-21T06:01:43;7.07;;;3.83;;
289;SDS011;13193;48.874;9.086;2022-08-21T06:04:10;7.57;;;4.40;;
289;SDS011;13193;48.874;9.086;2022-08-21T06:06:38;8.90;;;3.50;;
289;SDS011;13193;48.874;9.086;2022-08-21T06:09:09;16.13;;;4.40;;
289;SDS011;13193;48.874;9.086;2022-08-21T06:11:37;5.87;;;3.50;;
289;SDS011;13193;48.874;9.086;2022-08-21T06:14:03;9.13;;;3.60;;
289;SDS011;13193;48.874;9.086;2022-08-21T06:16:31;8.47;;;4.60;;
289;SDS011;13193;48.874;9.086;2022-08-21T06:18:57;9.40;;;4.40;;
289;SDS011;13193;48.874;9.086;2022-08-21T06:21:22;12.77;;;5.30;;
289;SDS011;13193;48.874;9.086;2022-08-21T06:23:53;12.37;;;4.27;;
289;SDS011;13193;48.874;9.086;2022-08-21T06:26:18;10.13;;;4.77;;
289;SDS011;13193;48.874;9.086;2022-08-21T06:28:45;4.07;;;2.80;;
289;SDS011;13193;48.874;9.086;2022-08-21T06:31:12;7.30;;;3.90;;
289;SDS011;13193;48.874;9.086;2022-08-21T06:33:45;8.20;;;4.30;;
289;SDS011;13193;48.874;9.086;2022-08-21T06:36:11;7.50;;;3.80;;
289;SDS011;13193;48.874;9.086;2022-08-21T06:38:37;10.13;;;4.10;;
289;SDS011;13193;48.874;9.086;2022-08-21T06:41:03;6.87;;;3.73;;
289;SDS011;13193;48.874;9.086;2022-08-21T06:43:30;12.50;;;4.40;;
289;SDS011;13193;48.874;9.086;2022-08-21T06:45:56;11.67;;;4.13;;
289;SDS011;13193;48.874;9.086;2022-08-21T06:48:21;7.13;;;3.60;;
289;SDS011;13193;48.874;9.086;2022-08-21T06:50:47;11.77;;;3.20;;
289;SDS011;13193;48.874;9.086;2022-08-21T06:53:15;11.07;;;3.40;;
289;SDS011;13193;48.874;9.086;2022-08-21T06:55:43;4.73;;;3.33;;
289;SDS011;13193;48.874;9.086;2022-08-21T06:58:11;6.23;;;3.90;;
289;SDS011;13193;48.874;9.086;2022-08-21T07:00:48;13.23;;;3.43;;
289;SDS011;13193;48.874;9.086;2022-08-21T07:03:17;6.07;;;3.83;;
289;SDS011;13193;48.874;9.086;2022-08-21T07:05:50;9.57;;;2.83;;
289;SDS011;13193;48.874;9.086;2022-08-21T07:08:16;7.60;;;3.80;;
289;SDS011;13193;48.874;9.086;2022-08-21T07:10:45;9.33;;;3.43;;
289;SDS011;13193;48.874;9.086;2022-08-21T07:13:14;16.03;;;3.17;;
289;SDS011;13193;48.874;9.086;2022-08-21T07:15:40;17.20;;;4.43;;
289;SDS011;13193;48.874;9.086;2022-08-21T07:18:06;9.27;;;4.30;;
289;SDS011;13193;48.874;9.086;2022-08-21T07:20:32;15.90;;;4.20;;
289;SDS011;13193;48.874;9.086;2022-08-21T07:22:59;7.60;;;3.73;;
289;SDS011;13193;48.874;9.086;2022-08-21T07:25:30;11.00;;;4.23;;
289;SDS011;13193;48.874;9.086;2022-08-21T07:27:56;14.60;;;4.40;;
289;SDS011;13193;48.874;9.086;2022-08-21T07:30:22;7.67;;;3.40;;
289;SDS011;13193;48.874;9.086;2022-08-21T07:32:48;7.80;;;3.73;;
289;SDS011;13193;48.874;9.086;2022-08-21T07:35:15;9.30;;;3.63;;
289;SDS011;13193;48.874;9.086;2022-08-21T07:37:41;4.97;;;3.47;;
289;SDS011;13193;48.874;9.086;2022-08-21T07:40:07;13.93;;;3.90;;
289;SDS011;13193;48.874;9.086;2022-08-21T07:42:33;10.73;;;3.77;;
289;SDS011;13193;48.874;9.086;2022-08-21T07:44:59;8.73;;;3.57;;
289;SDS011;13193;48.874;9.086;2022-08-21T07:47:25;8.17;;;3.67;;
289;SDS011;13193;48.874;9.086;2022-08-21T07:49:54;12.90;;;4.50;;
289;SDS011;13193;48.874;9.086;2022-08-21T07:52:19;10.10;;;3.30;;
289;SDS011;13193;48.874;9.086;2022-08-21T07:54:45;13.00;;;3.97;;
289;SDS011;13193;48.874;9.086;2022-08-21T07:57:11;6.60;;;3.10;;
289;SDS011;13193;48.874;9.086;2022-08-21T07:59:37;8.63;;;4.10;;
289;SDS011;13193;48.874;9.086;2022-08-21T08:02:02;7.80;;;3.67;;
289;SDS011;13193;48.874;9.086;2022-08-21T08:04:28;10.47;;;4.30;;
289;SDS011;13193;48.874;9.086;2022-08-21T08:06:56;14.03;;;4.00;;
289;SDS011;13193;48.874;9.086;2022-08-21T08:09:22;14.53;;;5.30;;
289;SDS011;13193;48.874;9.086;2022-08-21T08:11:47;11.50;;;3.37;;
289;SDS011;13193;48.874;9.086;2022-08-21T08:14:16;8.70;;;3.13;;
289;SDS011;13193;48.874;9.086;2022-08-21T08:16:42;12.33;;;4.70;;
289;SDS011;13193;48.874;9.086;2022-08-21T08:19:07;9.23;;;3.57;;
289;SDS011;13193;48.874;9.086;2022-08-21T08:21:33;15.93;;;4.00;;
289;SDS011;13193;48.874;9.086;2022-08-21T08:24:01;11.93;;;3.70;;
289;SDS011;13193;48.874;9.086;2022-08-21T08:26:27;5.53;;;3.50;;
289;SDS011;13193;48.874;9.086;2022-08-21T08:28:53;8.10;;;3.87;;
289;SDS011;13193;48.874;9.086;2022-08-21T08:31:21;6.90;;;3.40;;
289;SDS011;13193;48.874;9.086;2022-08-21T08:33:48;26.53;;;4.33;;
289;SDS011;13193;48.874;9.086;2022-08-21T08:36:16;6.57;;;3.50;;
289;SDS011;13193;48.874;9.086;2022-08-21T08:38:44;15.67;;;4.93;;
289;SDS011;13193;48.874;9.086;2022-08-21T08:41:15;12.10;;;4.50;;
289;SDS011;13193;48.874;9.086;2022-08-21T08:43:46;11.10;;;4.40;;
289;SDS011;13193;48.874;9.086;2022-08-21T08:46:17;8.90;;;3.80;;
289;SDS011;13193;48.874;9.086;2022-08-21T08:48:50;8.27;;;3.93;;
289;SDS011;13193;48.874;9.086;2022-08-21T08:51:26;13.67;;;3.53;;
289;SDS011;13193;48.874;9.086;2022-08-21T08:54:05;9.27;;;4.43;;
289;SDS011;13193;48.874;9.086;2022-08-21T08:56:34;8.47;;;3.60;;
289;SDS011;13193;48.874;9.086;2022-08-21T08:59:13;7.63;;;3.67;;
289;SDS011;13193;48.874;9.086;2022-08-21T09:01:43;8.20;;;3.67;;
289;SDS011;13193;48.874;9.086;2022-08-21T09:04:10;10.00;;;3.57;;
289;SDS011;13193;48.874;9.086;2022-08-21T09:07:12;12.20;;;4.73;;
289;SDS011;13193;48.874;9.086;2022-08-21T09:09:51;12.27;;;3.97;;
289;SDS011;13193;48.874;9.086;2022-08-21T09:12:33;7.23;;;3.20;;
289;SDS011;13193;48.874;9.086;2022-08-21T09:15:29;9.33;;;3.67;;
289;SDS011;13193;48.874;9.086;2022-08-21T09:18:11;6.20;;;3.67;;
289;SDS011;13193;48.874;9.086;2022-08-21T09:21:05;10.83;;;3.60;;
289;SDS011;13193;48.874;9.086;2022-08-21T09:26:13;5.93;;;2.97;;
289;SDS011;13193;48.874;9.086;2022-08-21T09:28:41;7.07;;;3.23;;
289;SDS011;13193;48.874;9.086;2022-08-21T09:31:25;13.37;;;3.43;;
289;SDS011;13193;48.874;9.086;2022-08-21T09:33:58;7.23;;;4.13;;
289;SDS011;13193;48.874;9.086;2022-08-21T09:36:40;11.30;;;4.23;;
289;SDS011;13193;48.874;9.086;2022-08-21T09:39:10;11.27;;;4.67;;
289;SDS011;13193;48.874;9.086;2022-08-21T09:41:38;10.33;;;3.17;;
289;SDS011;13193;48.874;9.086;2022-08-21T09:44:05;6.50;;;3.00;;
289;SDS011;13193;48.874;9.086;2022-08-21T09:46:31;15.90;;;4.30;;
289;SDS011;13193;48.874;9.086;2022-08-21T09:48:59;11.20;;;3.90;;
289;SDS011;13193;48.874;9.086;2022-08-21T09:51:27;12.13;;;3.37;;
289;SDS011;13193;48.874;9.086;2022-08-21T09:56:34;17.20;;;3.40;;
289;SDS011;13193;48.874;9.086;2022-08-21T10:01:58;10.37;;;3.93;;
289;SDS011;13193;48.874;9.086;2022-08-21T10:04:32;11.67;;;3.33;;
289;SDS011;13193;48.874;9.086;2022-08-21T10:10:05;11.63;;;3.03;;
289;SDS011;13193;48.874;9.086;2022-08-21T10:18:26;9.70;;;3.27;;
289;SDS011;13193;48.874;9.086;2022-08-21T10:21:16;15.53;;;3.90;;
289;SDS011;13193;48.874;9.086;2022-08-21T10:34:47;11.57;;;3.20;;
289;SDS011;13193;48.874;9.086;2022-08-21T10:37:40;7.43;;;4.10;;
289;SDS011;13193;48.874;9.086;2022-08-21T10:40:24;9.70;;;3.63;;
289;SDS011;13193;48.874;9.086;2022-08-21T10:43:17;11.73;;;2.70;;
289;SDS011;13193;48.874;9.086;2022-08-21T10:49:17;14.00;;;3.10;;
289;SDS011;13193;48.874;9.086;2022-08-21T10:57:40;11.17;;;3.33;;
289;SDS011;13193;48.874;9.086;2022-08-21T11:00:21;9.93;;;3.30;;
289;SDS011;13193;48.874;9.086;2022-08-21T11:02:58;9.70;;;3.80;;
289;SDS011;13193;48.874;9.086;2022-08-21T11:05:40;14.07;;;4.07;;
289;SDS011;13193;48.874;9.086;2022-08-21T11:08:09;7.67;;;2.77;;
289;SDS011;13193;48.874;9.086;2022-08-21T11:10:43;8.73;;;3.20;;
289;SDS011;13193;48.874;9.086;2022-08-21T11:13:21;6.83;;;3.10;;
289;SDS011;13193;48.874;9.086;2022-08-21T11:15:55;6.97;;;3.17;;
289;SDS011;13193;48.874;9.086;2022-08-21T11:18:29;13.53;;;4.37;;
289;SDS011;13193;48.874;9.086;2022-08-21T11:21:09;8.90;;;3.40;;
289;SDS011;13193;48.874;9.086;2022-08-21T11:27:14;7.53;;;2.77;;
289;SDS011;13193;48.874;9.086;2022-08-21T11:29:50;5.50;;;2.90;;
289;SDS011;13193;48.874;9.086;2022-08-21T11:32:32;6.87;;;2.80;;
289;SDS011;13193;48.874;9.086;2022-08-21T11:38:35;7.27;;;2.70;;
289;SDS011;13193;48.874;9.086;2022-08-21T11:41:28;7.23;;;3.10;;
289;SDS011;13193;48.874;9.086;2022-08-21T11:44:07;6.70;;;2.33;;
289;SDS011;13193;48.874;9.086;2022-08-21T11:47:04;8.17;;;3.40;;
289;SDS011;13193;48.874;9.086;2022-08-21T11:52:38;4.63;;;2.13;;
289;SDS011;13193;48.874;9.086;2022-08-21T11:55:16;5.80;;;2.70;;
289;SDS011;13193;48.874;9.086;2022-08-21T12:00:41;5.10;;;2.30;;
289;SDS011;13193;48.874;9.086;2022-08-21T12:03:13;13.53;;;2.53;;
289;SDS011;13193;48.874;9.086;2022-08-21T12:05:53;8.27;;;2.50;;
289;SDS011;13193;48.874;9.086;2022-08-21T12:08:35;6.07;;;3.10;;
289;SDS011;13193;48.874;9.086;2022-08-21T12:11:29;6.57;;;2.67;;
289;SDS011;13193;48.874;9.086;2022-08-21T12:13:57;6.17;;;2.73;;
289;SDS011;13193;48.874;9.086;2022-08-21T12:16:36;9.80;;;2.90;;
289;SDS011;13193;48.874;9.086;2022-08-21T12:19:05;19.33;;;3.57;;
289;SDS011;13193;48.874;9.086;2022-08-21T12:21:33;9.87;;;3.53;;
289;SDS011;13193;48.874;9.086;2022-08-21T12:24:19;8.37;;;3.50;;
289;SDS011;13193;48.874;9.086;2022-08-21T12:27:28;4.47;;;2.30;;
289;SDS011;13193;48.874;9.086;2022-08-21T12:29:59;5.77;;;3.13;;
289;SDS011;13193;48.874;9.086;2022-08-21T12:32:30;4.67;;;2.23;;
289;SDS011;13193;48.874;9.086;2022-08-21T12:37:40;9.20;;;3.00;;
289;SDS011;13193;48.874;9.086;2022-08-21T12:40:22;10.43;;;3.20;;
289;SDS011;13193;48.874;9.086;2022-08-21T12:42:55;10.17;;;2.73;;
289;SDS011;13193;48.874;9.086;2022-08-21T12:45:28;10.60;;;2.77;;
289;SDS011;13193;48.874;9.086;2022-08-21T12:50:43;10.20;;;2.93;;
289;SDS011;13193;48.874;9.086;2022-08-21T12:56:20;7.30;;;2.73;;
289;SDS011;13193;48.874;9.086;2022-08-21T12:58:48;9.17;;;2.83;;
289;SDS011;13193;48.874;9.086;2022-08-21T13:01:25;7.63;;;2.57;;
289;SDS011;13193;48.874;9.086;2022-08-21T13:03:54;12.60;;;3.20;;
289;SDS011;13193;48.874;9.086;2022-08-21T13:06:39;8.03;;;3.23;;
289;SDS011;13193;48.874;9.086;2022-08-21T13:09:11;5.93;;;3.40;;
289;SDS011;13193;48.874;9.086;2022-08-21T13:11:41;7.80;;;3.07;;
289;SDS011;13193;48.874;9.086;2022-08-21T13:17:06;9.37;;;3.43;;
289;SDS011;13193;48.874;9.086;2022-08-21T13:19:32;6.67;;;3.07;;
289;SDS011;13193;48.874;9.086;2022-08-21T13:21:59;7.60;;;2.67;;
289;SDS011;13193;48.874;9.086;2022-08-21T13:24:28;8.43;;;2.80;;
289;SDS011;13193;48.874;9.086;2022-08-21T13:26:59;5.87;;;2.63;;
289;SDS011;13193;48.874;9.086;2022-08-21T13:29:29;6.20;;;2.90;;
289;SDS011;13193;48.874;9.086;2022-08-21T13:32:04;8.33;;;2.73;;
289;SDS011;13193;48.874;9.086;2022-08-21T13:34:34;7.40;;;3.00;;
289;SDS011;13193;48.874;9.086;2022-08-21T13:37:05;8.63;;;2.90;;
289;SDS011;13193;48.874;9.086;2022-08-21T13:39:33;5.90;;;3.53;;
289;SDS011;13193;48.874;9.086;2022-08-21T13:42:01;10.40;;;3.07;;
289;SDS011;13193;48.874;9.086;2022-08-21T13:44:34;9.23;;;3.50;;
289;SDS011;13193;48.874;9.086;2022-08-21T13:47:02;11.33;;;3.60;;
289;SDS011;13193;48.874;9.086;2022-08-21T13:49:34;6.37;;;2.73;;
289;SDS011;13193;48.874;9.086;2022-08-21T13:52:02;6.23;;;2.50;;
289;SDS011;13193;48.874;9.086;2022-08-21T13:54:33;10.50;;;2.60;;
289;SDS011;13193;48.874;9.086;2022-08-21T13:57:12;4.50;;;2.20;;
289;SDS011;13193;48.874;9.086;2022-08-21T13:59:45;8.20;;;2.90;;
289;SDS011;13193;48.874;9.086;2022-08-21T14:02:17;6.33;;;2.70;;
289;SDS011;13193;48.874;9.086;2022-08-21T14:04:56;9.00;;;3.00;;
289;SDS011;13193;48.874;9.086;2022-08-21T14:07:33;5.20;;;2.70;;
289;SDS011;13193;48.874;9.086;2022-08-21T14:10:06;5.90;;;3.13;;
289;SDS011;13193;48.874;9.086;2022-08-21T14:12:44;6.00;;;3.10;;
289;SDS011;13193;48.874;9.086;2022-08-21T14:15:17;5.70;;;2.87;;
289;SDS011;13193;48.874;9.086;2022-08-21T14:17:47;6.13;;;3.57;;
289;SDS011;13193;48.874;9.086;2022-08-21T14:20:25;6.97;;;2.53;;
289;SDS011;13193;48.874;9.086;2022-08-21T14:22:53;5.90;;;2.90;;
289;SDS011;13193;48.874;9.086;2022-08-21T14:27:49;6.13;;;2.40;;
289;SDS011;13193;48.874;9.086;2022-08-21T14:30:30;5.17;;;2.63;;
289;SDS011;13193;48.874;9.086;2022-08-21T14:33:01;12.63;;;3.33;;
289;SDS011;13193;48.874;9.086;2022-08-21T14:35:28;4.30;;;2.17;;
289;SDS011;13193;48.874;9.086;2022-08-21T14:37:57;8.60;;;3.30;;
289;SDS011;13193;48.874;9.086;2022-08-21T14:40:23;6.43;;;2.60;;
289;SDS011;13193;48.874;9.086;2022-08-21T14:42:52;10.23;;;3.23;;
289;SDS011;13193;48.874;9.086;2022-08-21T14:45:23;13.87;;;2.90;;
289;SDS011;13193;48.874;9.086;2022-08-21T14:47:54;7.37;;;3.17;;
289;SDS011;13193;48.874;9.086;2022-08-21T14:50:21;10.73;;;3.20;;
289;SDS011;13193;48.874;9.086;2022-08-21T14:52:47;9.13;;;2.77;;
289;SDS011;13193;48.874;9.086;2022-08-21T14:55:13;6.53;;;2.67;;
289;SDS011;13193;48.874;9.086;2022-08-21T14:57:41;5.87;;;2.43;;
289;SDS011;13193;48.874;9.086;2022-08-21T15:00:09;7.23;;;3.30;;
289;SDS011;13193;48.874;9.086;2022-08-21T15:02:42;5.30;;;2.53;;
289;SDS011;13193;48.874;9.086;2022-08-21T15:05:09;10.07;;;2.30;;
289;SDS011;13193;48.874;9.086;2022-08-21T15:07:35;6.73;;;2.30;;
289;SDS011;13193;48.874;9.086;2022-08-21T15:10:01;6.80;;;2.70;;
289;SDS011;13193;48.874;9.086;2022-08-21T15:12:29;10.03;;;2.83;;
289;SDS011;13193;48.874;9.086;2022-08-21T15:14:55;7.80;;;3.10;;
289;SDS011;13193;48.874;9.086;2022-08-21T15:17:21;7.20;;;2.90;;
289;SDS011;13193;48.874;9.086;2022-08-21T15:19:47;6.87;;;2.70;;
289;SDS011;13193;48.874;9.086;2022-08-21T15:22:12;4.97;;;2.47;;
289;SDS011;13193;48.874;9.086;2022-08-21T15:24:43;8.93;;;2.60;;
289;SDS011;13193;48.874;9.086;2022-08-21T15:27:09;11.83;;;3.20;;
289;SDS011;13193;48.874;9.086;2022-08-21T15:29:35;11.10;;;2.70;;
289;SDS011;13193;48.874;9.086;2022-08-21T15:34:47;5.33;;;2.80;;
289;SDS011;13193;48.874;9.086;2022-08-21T15:37:12;15.10;;;3.10;;
289;SDS011;13193;48.874;9.086;2022-08-21T15:39:38;6.00;;;2.97;;
289;SDS011;13193;48.874;9.086;2022-08-21T15:42:06;6.80;;;2.23;;
289;SDS011;13193;48.874;9.086;2022-08-21T15:44:32;5.80;;;2.70;;
289;SDS011;13193;48.874;9.086;2022-08-21T15:47:01;5.93;;;2.77;;
289;SDS011;13193;48.874;9.086;2022-08-21T15:49:27;6.83;;;2.77;;
289;SDS011;13193;48.874;9.086;2022-08-21T15:51:55;10.33;;;3.07;;
289;SDS011;13193;48.874;9.086;2022-08-21T15:54:21;6.10;;;3.10;;
289;SDS011;13193;48.874;9.086;2022-08-21T15:56:47;10.60;;;3.20;;
289;SDS011;13193;48.874;9.086;2022-08-21T15:59:16;8.70;;;2.90;;
289;SDS011;13193;48.874;9.086;2022-08-21T16:01:46;5.00;;;2.43;;
289;SDS011;13193;48.874;9.086;2022-08-21T16:04:17;9.80;;;3.30;;
289;SDS011;13193;48.874;9.086;2022-08-21T16:06:51;7.70;;;3.30;;
289;SDS011;13193;48.874;9.086;2022-08-21T16:09:22;8.47;;;3.17;;
289;SDS011;13193;48.874;9.086;2022-08-21T16:11:48;8.60;;;2.83;;
289;SDS011;13193;48.874;9.086;2022-08-21T16:14:14;8.40;;;3.50;;
289;SDS011;13193;48.874;9.086;2022-08-21T16:16:41;8.27;;;3.17;;
289;SDS011;13193;48.874;9.086;2022-08-21T16:19:08;4.63;;;2.50;;
289;SDS011;13193;48.874;9.086;2022-08-21T16:21:36;7.90;;;3.10;;
289;SDS011;13193;48.874;9.086;2022-08-21T16:24:05;6.47;;;2.80;;
289;SDS011;13193;48.874;9.086;2022-08-21T16:26:31;8.07;;;3.07;;
289;SDS011;13193;48.874;9.086;2022-08-21T16:28:59;6.40;;;3.10;;
289;SDS011;13193;48.874;9.086;2022-08-21T16:31:27;5.60;;;2.87;;
289;SDS011;13193;48.874;9.086;2022-08-21T16:33:53;5.97;;;2.97;;
289;SDS011;13193;48.874;9.086;2022-08-21T16:36:20;13.73;;;3.27;;